VSV717 UAII-UAAA
Flight info
| Callsign | VSV717 |
|---|---|
| Flight time | 0h 54m |
| Altitude | 37000 |
| Route | TURIK N143 KOLAM Z580 TAR Z817 AGLEK Z370 EKLAT |
| Aircraft | B752/M-SDE2E3FGHIJ3J4J7RWXY/LB1 |
Departure
| Time | 2026-04-26 18:49 |
|---|---|
| Airport | Shymkent International Airport (UAII) |
Arrival
| Time | 2026-04-26 19:43 |
|---|---|
| Airport | Almaty International Airport (UAAA) |
| Time | Latitude | Longitude | Altitude | Speed | Heading |
|---|---|---|---|---|---|
| 2026-04-26 18:14 | 42.36474 | 69.49270 | 1378 ft | 0 kts | 24° |
| 2026-04-26 18:44 | 42.36478 | 69.49273 | 1378 ft | 2 kts | 24° |
| 2026-04-26 18:44 | 42.36498 | 69.49286 | 1378 ft | 2 kts | 39° |
| 2026-04-26 18:44 | 42.36507 | 69.49308 | 1379 ft | 2 kts | 72° |
| 2026-04-26 18:45 | 42.36507 | 69.49337 | 1379 ft | 3 kts | 104° |
| 2026-04-26 18:45 | 42.36493 | 69.49366 | 1380 ft | 3 kts | 137° |
| 2026-04-26 18:45 | 42.36467 | 69.49378 | 1380 ft | 4 kts | 181° |
| 2026-04-26 18:45 | 42.36421 | 69.49360 | 1380 ft | 10 kts | 197° |
| 2026-04-26 18:46 | 42.36335 | 69.49322 | 1379 ft | 9 kts | 197° |
| 2026-04-26 18:46 | 42.36274 | 69.49297 | 1380 ft | 8 kts | 196° |
| 2026-04-26 18:46 | 42.36268 | 69.49295 | 1380 ft | 0 kts | 196° |
| 2026-04-26 18:46 | 42.36264 | 69.49294 | 1380 ft | 2 kts | 196° |
| 2026-04-26 18:47 | 42.36242 | 69.49284 | 1381 ft | 4 kts | 196° |
| 2026-04-26 18:47 | 42.36208 | 69.49271 | 1381 ft | 5 kts | 196° |
| 2026-04-26 18:47 | 42.36166 | 69.49246 | 1381 ft | 6 kts | 225° |
| 2026-04-26 18:47 | 42.36156 | 69.49183 | 1380 ft | 7 kts | 281° |
| 2026-04-26 18:48 | 42.36158 | 69.49172 | 1379 ft | 0 kts | 286° |
| 2026-04-26 18:48 | 42.36164 | 69.49145 | 1379 ft | 20 kts | 286° |
| 2026-04-26 18:48 | 42.36297 | 69.48532 | 1367 ft | 113 kts | 287° |
| 2026-04-26 18:48 | 42.36600 | 69.47158 | 1581 ft | 176 kts | 287° |
| 2026-04-26 18:49 | 42.36968 | 69.45517 | 2568 ft | 190 kts | 292° |
| 2026-04-26 18:49 | 42.37743 | 69.44095 | 3249 ft | 197 kts | 331° |
| 2026-04-26 18:49 | 42.39095 | 69.43642 | 3805 ft | 209 kts | 9° |
| 2026-04-26 18:49 | 42.40493 | 69.44476 | 4288 ft | 232 kts | 45° |
| 2026-04-26 18:50 | 42.41366 | 69.46409 | 4879 ft | 252 kts | 77° |
| 2026-04-26 18:50 | 42.41356 | 69.48823 | 5541 ft | 267 kts | 108° |
| 2026-04-26 18:50 | 42.40689 | 69.51189 | 6526 ft | 272 kts | 110° |
| 2026-04-26 18:50 | 42.40240 | 69.53725 | 7415 ft | 283 kts | 95° |
| 2026-04-26 18:51 | 42.40499 | 69.56385 | 8289 ft | 292 kts | 76° |
| 2026-04-26 18:51 | 42.41061 | 69.59098 | 9186 ft | 299 kts | 76° |
| 2026-04-26 18:51 | 42.41636 | 69.61816 | 9996 ft | 306 kts | 75° |
| 2026-04-26 18:51 | 42.42256 | 69.64645 | 10700 ft | 319 kts | 75° |
| 2026-04-26 18:52 | 42.42923 | 69.67632 | 11147 ft | 339 kts | 75° |
| 2026-04-26 18:52 | 42.43632 | 69.70767 | 11702 ft | 353 kts | 74° |
| 2026-04-26 18:52 | 42.44364 | 69.73998 | 12541 ft | 359 kts | 74° |
| 2026-04-26 18:52 | 42.45102 | 69.77247 | 13394 ft | 363 kts | 74° |
| 2026-04-26 18:53 | 42.45853 | 69.80553 | 14311 ft | 364 kts | 74° |
| 2026-04-26 18:53 | 42.46604 | 69.83864 | 15069 ft | 372 kts | 74° |
| 2026-04-26 18:53 | 42.47379 | 69.87283 | 15878 ft | 376 kts | 74° |
| 2026-04-26 18:53 | 42.48151 | 69.90694 | 16750 ft | 378 kts | 74° |
| 2026-04-26 18:54 | 42.48938 | 69.94172 | 17512 ft | 382 kts | 74° |
| 2026-04-26 18:54 | 42.49715 | 69.97620 | 18217 ft | 389 kts | 73° |
| 2026-04-26 18:54 | 42.50510 | 70.01145 | 18992 ft | 391 kts | 73° |
| 2026-04-26 18:54 | 42.51322 | 70.04752 | 19642 ft | 398 kts | 73° |
| 2026-04-26 18:55 | 42.52160 | 70.08339 | 20356 ft | 402 kts | 70° |
| 2026-04-26 18:55 | 42.53171 | 70.11919 | 21070 ft | 406 kts | 69° |
| 2026-04-26 18:55 | 42.54182 | 70.15523 | 21717 ft | 411 kts | 69° |
| 2026-04-26 18:55 | 42.55203 | 70.19179 | 22341 ft | 416 kts | 69° |
| 2026-04-26 18:56 | 42.56236 | 70.22896 | 23024 ft | 419 kts | 69° |
| 2026-04-26 18:56 | 42.57262 | 70.26593 | 23596 ft | 424 kts | 69° |
| 2026-04-26 18:56 | 42.58297 | 70.30334 | 24238 ft | 428 kts | 69° |
| 2026-04-26 18:56 | 42.59360 | 70.34181 | 24844 ft | 431 kts | 69° |
| 2026-04-26 18:57 | 42.60416 | 70.38009 | 25388 ft | 436 kts | 69° |
| 2026-04-26 18:57 | 42.61126 | 70.40588 | 25758 ft | 439 kts | 69° |
| 2026-04-26 18:57 | 42.62625 | 70.45790 | 26488 ft | 444 kts | 67° |
| 2026-04-26 18:57 | 42.63799 | 70.49660 | 27105 ft | 445 kts | 67° |
| 2026-04-26 18:58 | 42.64972 | 70.53560 | 27562 ft | 450 kts | 68° |
| 2026-04-26 18:58 | 42.66155 | 70.57495 | 28056 ft | 453 kts | 67° |
| 2026-04-26 18:58 | 42.67355 | 70.61497 | 28542 ft | 456 kts | 67° |
| 2026-04-26 18:58 | 42.68525 | 70.65408 | 28961 ft | 460 kts | 68° |
| 2026-04-26 18:59 | 42.69698 | 70.69331 | 29464 ft | 461 kts | 68° |
| 2026-04-26 18:59 | 42.70914 | 70.73405 | 29851 ft | 466 kts | 68° |
| 2026-04-26 18:59 | 42.72134 | 70.77505 | 30358 ft | 467 kts | 68° |
| 2026-04-26 18:59 | 42.73344 | 70.81574 | 30657 ft | 473 kts | 68° |
| 2026-04-26 19:00 | 42.74584 | 70.85749 | 31184 ft | 473 kts | 68° |
| 2026-04-26 19:00 | 42.75834 | 70.89964 | 31443 ft | 480 kts | 68° |
| 2026-04-26 19:00 | 42.77052 | 70.94080 | 31970 ft | 479 kts | 68° |
| 2026-04-26 19:00 | 42.78322 | 70.98381 | 32486 ft | 479 kts | 68° |
| 2026-04-26 19:01 | 42.79536 | 71.02496 | 32982 ft | 477 kts | 68° |
| 2026-04-26 19:01 | 42.80798 | 71.06783 | 33412 ft | 479 kts | 68° |
| 2026-04-26 19:01 | 42.82044 | 71.11019 | 33922 ft | 477 kts | 68° |
| 2026-04-26 19:01 | 42.83273 | 71.15212 | 34329 ft | 477 kts | 68° |
| 2026-04-26 19:02 | 42.84501 | 71.19401 | 34613 ft | 478 kts | 68° |
| 2026-04-26 19:02 | 42.85754 | 71.23688 | 34980 ft | 477 kts | 68° |
| 2026-04-26 19:02 | 42.86939 | 71.27949 | 35214 ft | 480 kts | 72° |
| 2026-04-26 19:02 | 42.87552 | 71.30840 | 35438 ft | 479 kts | 74° |
| 2026-04-26 19:03 | 42.88729 | 71.36647 | 35836 ft | 479 kts | 74° |
| 2026-04-26 19:03 | 42.89614 | 71.41043 | 36120 ft | 480 kts | 74° |
| 2026-04-26 19:03 | 42.90489 | 71.45420 | 36377 ft | 481 kts | 73° |
| 2026-04-26 19:03 | 42.91355 | 71.49777 | 36750 ft | 481 kts | 73° |
| 2026-04-26 19:04 | 42.92229 | 71.54188 | 37105 ft | 481 kts | 73° |
| 2026-04-26 19:04 | 42.93100 | 71.58600 | 37210 ft | 482 kts | 74° |
| 2026-04-26 19:04 | 42.94835 | 71.67418 | 37201 ft | 477 kts | 74° |
| 2026-04-26 19:05 | 42.97395 | 71.80512 | 37187 ft | 478 kts | 74° |
| 2026-04-26 19:06 | 42.99089 | 71.89228 | 37206 ft | 475 kts | 75° |
| 2026-04-26 19:06 | 43.00794 | 71.98040 | 37200 ft | 477 kts | 74° |
| 2026-04-26 19:07 | 43.02477 | 72.06776 | 37180 ft | 477 kts | 74° |
| 2026-04-26 19:07 | 43.04167 | 72.15589 | 37185 ft | 475 kts | 74° |
| 2026-04-26 19:08 | 43.05851 | 72.24414 | 37183 ft | 476 kts | 74° |
| 2026-04-26 19:08 | 43.07523 | 72.33212 | 37178 ft | 477 kts | 75° |
| 2026-04-26 19:09 | 43.09192 | 72.42036 | 37175 ft | 476 kts | 75° |
| 2026-04-26 19:09 | 43.10847 | 72.50826 | 37180 ft | 475 kts | 75° |
| 2026-04-26 19:10 | 43.12501 | 72.59654 | 37179 ft | 475 kts | 75° |
| 2026-04-26 19:10 | 43.14148 | 72.68481 | 37170 ft | 475 kts | 76° |
| 2026-04-26 19:11 | 43.15802 | 72.77362 | 37168 ft | 475 kts | 76° |
| 2026-04-26 19:11 | 43.17460 | 72.86237 | 37171 ft | 475 kts | 75° |
| 2026-04-26 19:12 | 43.19099 | 72.95062 | 37167 ft | 475 kts | 76° |
| 2026-04-26 19:12 | 43.20723 | 73.03863 | 37166 ft | 475 kts | 76° |
| 2026-04-26 19:13 | 43.22348 | 73.12705 | 37160 ft | 474 kts | 76° |
| 2026-04-26 19:13 | 43.23953 | 73.21484 | 37159 ft | 474 kts | 76° |
| 2026-04-26 19:14 | 43.25547 | 73.30241 | 37162 ft | 473 kts | 76° |
| 2026-04-26 19:14 | 43.27145 | 73.39062 | 37158 ft | 474 kts | 76° |
| 2026-04-26 19:15 | 43.28740 | 73.47910 | 37159 ft | 474 kts | 76° |
| 2026-04-26 19:15 | 43.30316 | 73.56696 | 37154 ft | 474 kts | 76° |
| 2026-04-26 19:16 | 43.31887 | 73.65492 | 37144 ft | 472 kts | 77° |
| 2026-04-26 19:16 | 43.33447 | 73.74272 | 37132 ft | 472 kts | 77° |
| 2026-04-26 19:17 | 43.35020 | 73.83168 | 37131 ft | 473 kts | 77° |
| 2026-04-26 19:17 | 43.36574 | 73.91997 | 37125 ft | 473 kts | 77° |
| 2026-04-26 19:18 | 43.38123 | 74.00840 | 37130 ft | 471 kts | 77° |
| 2026-04-26 19:18 | 43.39650 | 74.09604 | 37134 ft | 472 kts | 77° |
| 2026-04-26 19:19 | 43.41174 | 74.18398 | 37139 ft | 471 kts | 77° |
| 2026-04-26 19:19 | 43.42696 | 74.27212 | 37438 ft | 472 kts | 77° |
| 2026-04-26 19:19 | 43.43453 | 74.31615 | 37029 ft | 470 kts | 77° |
| 2026-04-26 19:20 | 43.44204 | 74.35998 | 37163 ft | 471 kts | 77° |
| 2026-04-26 19:20 | 43.45705 | 74.44782 | 37133 ft | 461 kts | 77° |
| 2026-04-26 19:20 | 43.46439 | 74.49089 | 36810 ft | 449 kts | 77° |
| 2026-04-26 19:21 | 43.47154 | 74.53298 | 35785 ft | 451 kts | 77° |
| 2026-04-26 19:21 | 43.47866 | 74.57503 | 34666 ft | 453 kts | 78° |
| 2026-04-26 19:21 | 43.48582 | 74.61740 | 33748 ft | 448 kts | 78° |
| 2026-04-26 19:21 | 43.49288 | 74.65929 | 33111 ft | 440 kts | 78° |
| 2026-04-26 19:22 | 43.49990 | 74.70110 | 32501 ft | 450 kts | 78° |
| 2026-04-26 19:22 | 43.50709 | 74.74403 | 31892 ft | 462 kts | 78° |
| 2026-04-26 19:22 | 43.51441 | 74.78774 | 31266 ft | 463 kts | 78° |
| 2026-04-26 19:22 | 43.52164 | 74.83109 | 30647 ft | 454 kts | 77° |
| 2026-04-26 19:23 | 43.52870 | 74.87344 | 30080 ft | 449 kts | 77° |
| 2026-04-26 19:23 | 43.53568 | 74.91549 | 29503 ft | 451 kts | 77° |
| 2026-04-26 19:23 | 43.54267 | 74.95763 | 28924 ft | 446 kts | 77° |
| 2026-04-26 19:23 | 43.54837 | 74.99213 | 28454 ft | 440 kts | 77° |
| 2026-04-26 19:24 | 43.55511 | 75.03294 | 27885 ft | 432 kts | 77° |
| 2026-04-26 19:24 | 43.56171 | 75.07304 | 27325 ft | 426 kts | 77° |
| 2026-04-26 19:24 | 43.57470 | 75.15219 | 26250 ft | 418 kts | 78° |
| 2026-04-26 19:25 | 43.58109 | 75.19133 | 25724 ft | 416 kts | 78° |
| 2026-04-26 19:25 | 43.58323 | 75.20442 | 25548 ft | 415 kts | 78° |
| 2026-04-26 19:25 | 43.59367 | 75.26860 | 24688 ft | 408 kts | 78° |
| 2026-04-26 19:25 | 43.59984 | 75.30658 | 24170 ft | 405 kts | 78° |
| 2026-04-26 19:26 | 43.60599 | 75.34453 | 23664 ft | 401 kts | 78° |
| 2026-04-26 19:26 | 43.61208 | 75.38220 | 23170 ft | 397 kts | 78° |
| 2026-04-26 19:26 | 43.61803 | 75.41915 | 22698 ft | 394 kts | 78° |
| 2026-04-26 19:26 | 43.62393 | 75.45583 | 22206 ft | 391 kts | 78° |
| 2026-04-26 19:27 | 43.62939 | 75.49271 | 21723 ft | 388 kts | 84° |
| 2026-04-26 19:27 | 43.62942 | 75.52943 | 21270 ft | 383 kts | 99° |
| 2026-04-26 19:27 | 43.62261 | 75.56504 | 20802 ft | 379 kts | 111° |
| 2026-04-26 19:27 | 43.61339 | 75.59868 | 20321 ft | 377 kts | 112° |
| 2026-04-26 19:28 | 43.60385 | 75.63219 | 19836 ft | 374 kts | 113° |
| 2026-04-26 19:28 | 43.59398 | 75.66572 | 19357 ft | 371 kts | 114° |
| 2026-04-26 19:28 | 43.58421 | 75.69827 | 18883 ft | 368 kts | 114° |
| 2026-04-26 19:28 | 43.57433 | 75.73085 | 18408 ft | 365 kts | 114° |
| 2026-04-26 19:29 | 43.56443 | 75.76330 | 17937 ft | 361 kts | 114° |
| 2026-04-26 19:29 | 43.55478 | 75.79478 | 17492 ft | 358 kts | 114° |
| 2026-04-26 19:29 | 43.54507 | 75.82639 | 17037 ft | 355 kts | 114° |
| 2026-04-26 19:29 | 43.53551 | 75.85743 | 16597 ft | 351 kts | 115° |
| 2026-04-26 19:30 | 43.52600 | 75.88826 | 16160 ft | 348 kts | 114° |
| 2026-04-26 19:30 | 43.51653 | 75.91893 | 15733 ft | 346 kts | 114° |
| 2026-04-26 19:30 | 43.50706 | 75.94956 | 15284 ft | 343 kts | 114° |
| 2026-04-26 19:30 | 43.50089 | 75.96947 | 15003 ft | 341 kts | 114° |
| 2026-04-26 19:31 | 43.48857 | 76.00924 | 14447 ft | 336 kts | 114° |
| 2026-04-26 19:31 | 43.47937 | 76.03889 | 14038 ft | 333 kts | 114° |
| 2026-04-26 19:31 | 43.47023 | 76.06829 | 13657 ft | 331 kts | 114° |
| 2026-04-26 19:31 | 43.46118 | 76.09741 | 13233 ft | 329 kts | 114° |
| 2026-04-26 19:32 | 43.45217 | 76.12633 | 12832 ft | 325 kts | 114° |
| 2026-04-26 19:32 | 43.44326 | 76.15490 | 12420 ft | 322 kts | 114° |
| 2026-04-26 19:32 | 43.43454 | 76.18285 | 12057 ft | 319 kts | 114° |
| 2026-04-26 19:32 | 43.42578 | 76.21088 | 11694 ft | 319 kts | 114° |
| 2026-04-26 19:33 | 43.41705 | 76.23878 | 11289 ft | 317 kts | 114° |
| 2026-04-26 19:33 | 43.40829 | 76.26676 | 10862 ft | 314 kts | 113° |
| 2026-04-26 19:33 | 43.39972 | 76.29411 | 10466 ft | 310 kts | 113° |
| 2026-04-26 19:33 | 43.39144 | 76.32048 | 10389 ft | 294 kts | 113° |
| 2026-04-26 19:34 | 43.38349 | 76.34579 | 10247 ft | 283 kts | 112° |
| 2026-04-26 19:34 | 43.37582 | 76.37021 | 9960 ft | 279 kts | 112° |
| 2026-04-26 19:34 | 43.36820 | 76.39444 | 9684 ft | 274 kts | 112° |
| 2026-04-26 19:34 | 43.36077 | 76.41801 | 9393 ft | 264 kts | 112° |
| 2026-04-26 19:35 | 43.35342 | 76.44134 | 9179 ft | 268 kts | 112° |
| 2026-04-26 19:35 | 43.34587 | 76.46530 | 8950 ft | 275 kts | 112° |
| 2026-04-26 19:35 | 43.33817 | 76.48970 | 8622 ft | 275 kts | 112° |
| 2026-04-26 19:35 | 43.33059 | 76.51366 | 8306 ft | 271 kts | 112° |
| 2026-04-26 19:36 | 43.32309 | 76.53736 | 7996 ft | 268 kts | 112° |
| 2026-04-26 19:36 | 43.32056 | 76.54536 | 7901 ft | 268 kts | 112° |
| 2026-04-26 19:36 | 43.30807 | 76.58478 | 7450 ft | 269 kts | 112° |
| 2026-04-26 19:36 | 43.30055 | 76.60849 | 7115 ft | 268 kts | 112° |
| 2026-04-26 19:37 | 43.29311 | 76.63194 | 6809 ft | 265 kts | 112° |
| 2026-04-26 19:37 | 43.28564 | 76.65543 | 6523 ft | 264 kts | 112° |
| 2026-04-26 19:37 | 43.27828 | 76.67858 | 6230 ft | 265 kts | 112° |
| 2026-04-26 19:37 | 43.27088 | 76.70183 | 5851 ft | 267 kts | 112° |
| 2026-04-26 19:38 | 43.26345 | 76.72515 | 5573 ft | 260 kts | 113° |
| 2026-04-26 19:38 | 43.25630 | 76.74757 | 5554 ft | 245 kts | 113° |
| 2026-04-26 19:38 | 43.24973 | 76.76815 | 5486 ft | 226 kts | 113° |
| 2026-04-26 19:38 | 43.24350 | 76.78773 | 5512 ft | 222 kts | 110° |
| 2026-04-26 19:39 | 43.24137 | 76.80830 | 5524 ft | 212 kts | 78° |
| 2026-04-26 19:39 | 43.24726 | 76.82672 | 5192 ft | 210 kts | 57° |
| 2026-04-26 19:39 | 43.25522 | 76.84306 | 4764 ft | 203 kts | 57° |
| 2026-04-26 19:39 | 43.26258 | 76.85837 | 4643 ft | 179 kts | 57° |
| 2026-04-26 19:40 | 43.26900 | 76.87152 | 4668 ft | 171 kts | 57° |
| 2026-04-26 19:40 | 43.27599 | 76.88608 | 4481 ft | 186 kts | 57° |
| 2026-04-26 19:40 | 43.27984 | 76.89402 | 4340 ft | 184 kts | 57° |
| 2026-04-26 19:40 | 43.28679 | 76.90815 | 4080 ft | 173 kts | 57° |
| 2026-04-26 19:41 | 43.29328 | 76.92127 | 3864 ft | 158 kts | 57° |
| 2026-04-26 19:41 | 43.29918 | 76.93313 | 3653 ft | 143 kts | 57° |
| 2026-04-26 19:41 | 43.30450 | 76.94381 | 3474 ft | 130 kts | 58° |
| 2026-04-26 19:41 | 43.30620 | 76.94724 | 3420 ft | 131 kts | 58° |
| 2026-04-26 19:42 | 43.31522 | 76.96539 | 3157 ft | 140 kts | 57° |
| 2026-04-26 19:42 | 43.32078 | 76.97654 | 2962 ft | 138 kts | 57° |
| 2026-04-26 19:42 | 43.32622 | 76.98747 | 2781 ft | 138 kts | 58° |
| 2026-04-26 19:42 | 43.33169 | 76.99843 | 2586 ft | 139 kts | 57° |
| 2026-04-26 19:43 | 43.33714 | 77.00920 | 2407 ft | 138 kts | 58° |
| 2026-04-26 19:43 | 43.34260 | 77.02029 | 2248 ft | 139 kts | 59° |
| 2026-04-26 19:43 | 43.34786 | 77.03103 | 2237 ft | 115 kts | 56° |
| 2026-04-26 19:43 | 43.35048 | 77.03624 | 2238 ft | 14 kts | 53° |
| 2026-04-26 19:44 | 43.35108 | 77.03745 | 2240 ft | 15 kts | 57° |
| 2026-04-26 19:44 | 43.35164 | 77.03866 | 2240 ft | 12 kts | 59° |
| 2026-04-26 19:44 | 43.35194 | 77.03935 | 2241 ft | 5 kts | 59° |
| 2026-04-26 19:44 | 43.35215 | 77.03980 | 2242 ft | 6 kts | 56° |
| 2026-04-26 19:45 | 43.35254 | 77.04059 | 2242 ft | 15 kts | 53° |
| 2026-04-26 19:45 | 43.35334 | 77.04211 | 2244 ft | 21 kts | 55° |
| 2026-04-26 19:45 | 43.35397 | 77.04336 | 2245 ft | 11 kts | 51° |
| 2026-04-26 19:45 | 43.35457 | 77.04400 | 2245 ft | 9 kts | 20° |
| 2026-04-26 19:46 | 43.35495 | 77.04428 | 2245 ft | 5 kts | 56° |
| 2026-04-26 19:46 | 43.35496 | 77.04469 | 2245 ft | 3 kts | 126° |
| 2026-04-26 19:46 | 43.35463 | 77.04458 | 2246 ft | 9 kts | 233° |
| 2026-04-26 19:46 | 43.35396 | 77.04324 | 2244 ft | 24 kts | 234° |
| 2026-04-26 19:47 | 43.35294 | 77.04110 | 2242 ft | 27 kts | 237° |
| 2026-04-26 19:47 | 43.35221 | 77.03964 | 2242 ft | 27 kts | 234° |
| 2026-04-26 19:47 | 43.35092 | 77.03709 | 2240 ft | 22 kts | 237° |
| 2026-04-26 19:47 | 43.35000 | 77.03525 | 2236 ft | 23 kts | 234° |
| 2026-04-26 19:48 | 43.34907 | 77.03341 | 2235 ft | 23 kts | 237° |
| 2026-04-26 19:48 | 43.34831 | 77.03151 | 2236 ft | 17 kts | 240° |
| 2026-04-26 19:48 | 43.34787 | 77.03008 | 2236 ft | 15 kts | 255° |
| 2026-04-26 19:48 | 43.34781 | 77.02854 | 2234 ft | 12 kts | 271° |
| 2026-04-26 19:49 | 43.34778 | 77.02762 | 2234 ft | 9 kts | 268° |
| 2026-04-26 19:49 | 43.34775 | 77.02672 | 2233 ft | 10 kts | 267° |
| 2026-04-26 19:49 | 43.34771 | 77.02576 | 2233 ft | 9 kts | 266° |
| 2026-04-26 19:49 | 43.34772 | 77.02486 | 2233 ft | 9 kts | 272° |
| 2026-04-26 19:50 | 43.34775 | 77.02398 | 2233 ft | 9 kts | 272° |
| 2026-04-26 19:50 | 43.34781 | 77.02312 | 2232 ft | 9 kts | 275° |
| 2026-04-26 19:50 | 43.34787 | 77.02195 | 2230 ft | 17 kts | 272° |
| 2026-04-26 19:50 | 43.34794 | 77.02005 | 2229 ft | 19 kts | 274° |
| 2026-04-26 19:51 | 43.34801 | 77.01874 | 2228 ft | 10 kts | 275° |
| 2026-04-26 19:51 | 43.34807 | 77.01773 | 2228 ft | 10 kts | 274° |
| 2026-04-26 19:51 | 43.34811 | 77.01671 | 2228 ft | 10 kts | 273° |
| 2026-04-26 19:51 | 43.34816 | 77.01574 | 2228 ft | 10 kts | 275° |
| 2026-04-26 19:52 | 43.34845 | 77.01515 | 2227 ft | 6 kts | 338° |
| 2026-04-26 19:52 | 43.34866 | 77.01485 | 2226 ft | 4 kts | 285° |
| 2026-04-26 19:52 | 43.34859 | 77.01442 | 2226 ft | 5 kts | 246° |
| 2026-04-26 19:52 | 43.34847 | 77.01407 | 2226 ft | 2 kts | 246° |
| 2026-04-26 19:53 | 43.34843 | 77.01393 | 2226 ft | 0 kts | 245° |